createdAt,value
2023-03-27T00:02:08.776Z,0.57
2023-03-27T00:04:35.698Z,0.70
2023-03-27T00:07:03.394Z,0.57
2023-03-27T00:09:32.377Z,0.50
2023-03-27T00:12:00.781Z,1.33
2023-03-27T00:14:27.708Z,0.73
2023-03-27T00:16:54.621Z,0.80
2023-03-27T00:19:21.779Z,0.80
2023-03-27T00:21:48.788Z,0.80
2023-03-27T00:24:16.064Z,0.77
2023-03-27T00:26:43.126Z,1.20
2023-03-27T00:29:10.514Z,0.90
2023-03-27T00:31:37.263Z,0.73
2023-03-27T00:34:04.017Z,0.73
2023-03-27T00:36:31.469Z,0.70
2023-03-27T00:38:58.280Z,0.60
2023-03-27T00:41:25.008Z,0.77
2023-03-27T00:43:54.095Z,0.47
2023-03-27T00:46:42.177Z,0.70
2023-03-27T00:49:10.149Z,0.60
2023-03-27T00:51:37.219Z,0.70
2023-03-27T00:54:04.647Z,0.50
2023-03-27T00:56:33.749Z,0.70
2023-03-27T00:59:02.563Z,0.80
2023-03-27T01:01:29.754Z,0.70
2023-03-27T01:03:58.490Z,0.70
2023-03-27T01:06:25.379Z,0.60
2023-03-27T01:08:52.129Z,0.60
2023-03-27T01:11:18.818Z,0.70
2023-03-27T01:14:07.436Z,0.63
2023-03-27T01:17:11.616Z,0.60
2023-03-27T01:20:15.527Z,1.17
2023-03-27T01:23:35.505Z,0.70
2023-03-27T01:26:36.211Z,1.03
2023-03-27T01:29:30.991Z,0.60
2023-03-27T01:32:09.327Z,0.60
2023-03-27T01:35:02.067Z,0.70
2023-03-27T01:37:50.316Z,0.80
2023-03-27T01:40:56.147Z,0.87
2023-03-27T01:43:42.727Z,0.80
2023-03-27T01:46:11.758Z,0.77
2023-03-27T01:48:47.964Z,0.80
2023-03-27T01:51:27.595Z,0.70
2023-03-27T01:54:15.629Z,0.80
2023-03-27T01:56:53.640Z,0.73
2023-03-27T01:59:22.769Z,0.90
2023-03-27T02:01:53.652Z,0.77
2023-03-27T02:04:27.386Z,0.80
2023-03-27T02:06:57.453Z,0.83
2023-03-27T02:09:31.715Z,0.70
2023-03-27T02:12:08.888Z,0.70
2023-03-27T02:14:48.591Z,0.77
2023-03-27T02:17:15.554Z,0.53
2023-03-27T02:19:58.397Z,0.60
2023-03-27T02:22:37.456Z,1.90
2023-03-27T02:25:24.160Z,0.67
2023-03-27T02:27:53.968Z,0.50
2023-03-27T02:30:31.304Z,0.50
2023-03-27T02:33:05.165Z,0.60
2023-03-27T02:36:07.871Z,0.50
2023-03-27T02:38:39.172Z,0.60
2023-03-27T02:41:09.450Z,0.50
2023-03-27T02:43:41.996Z,0.60
2023-03-27T02:46:31.246Z,0.50
2023-03-27T02:48:59.380Z,0.60
2023-03-27T02:51:32.012Z,0.40
2023-03-27T02:54:03.732Z,0.50
2023-03-27T02:56:32.263Z,0.60
2023-03-27T02:59:10.310Z,0.43
2023-03-27T03:01:37.411Z,0.60
2023-03-27T03:04:24.747Z,0.50
2023-03-27T03:06:51.550Z,0.40
2023-03-27T03:09:19.098Z,0.70
2023-03-27T03:11:51.345Z,0.50
2023-03-27T03:14:19.364Z,0.50
2023-03-27T03:16:46.274Z,0.60
2023-03-27T03:19:13.571Z,0.60
2023-03-27T03:21:40.734Z,0.80
2023-03-27T03:24:07.741Z,0.57
2023-03-27T03:26:34.852Z,0.50
2023-03-27T03:29:01.914Z,0.50
2023-03-27T03:31:44.611Z,0.47
2023-03-27T03:34:18.966Z,0.50
2023-03-27T03:36:49.428Z,0.57
2023-03-27T03:39:16.903Z,0.50
2023-03-27T03:41:43.677Z,0.50
2023-03-27T03:44:10.615Z,0.40
2023-03-27T03:46:37.470Z,0.53
2023-03-27T03:49:05.023Z,0.47
2023-03-27T03:51:32.571Z,0.50
2023-03-27T03:53:59.335Z,0.70
2023-03-27T03:56:27.806Z,0.40
2023-03-27T03:58:54.590Z,0.50
2023-03-27T04:01:22.553Z,0.60
2023-03-27T04:03:49.699Z,0.60
2023-03-27T04:06:20.810Z,0.60
2023-03-27T04:08:48.079Z,0.43
2023-03-27T04:11:14.898Z,0.50
2023-03-27T04:13:42.365Z,0.40
2023-03-27T04:16:09.370Z,0.50
2023-03-27T04:18:38.149Z,0.50
2023-03-27T04:21:05.379Z,0.50
2023-03-27T04:23:32.120Z,0.70
2023-03-27T04:26:03.913Z,0.43
2023-03-27T04:28:34.678Z,0.40
2023-03-27T04:31:08.319Z,0.53
2023-03-27T04:33:35.980Z,0.40
2023-03-27T04:36:07.400Z,0.60
2023-03-27T04:38:36.957Z,0.50
2023-03-27T04:41:04.439Z,0.50
2023-03-27T04:43:31.282Z,0.70
2023-03-27T04:45:59.062Z,0.63
2023-03-27T04:48:26.899Z,0.60
2023-03-27T04:50:53.704Z,0.60
2023-03-27T04:53:20.628Z,0.50
2023-03-27T04:55:51.265Z,0.80
2023-03-27T04:58:18.573Z,0.70
2023-03-27T05:00:50.495Z,0.60
2023-03-27T05:03:20.636Z,0.57
2023-03-27T05:05:50.016Z,0.57
2023-03-27T05:08:17.721Z,0.70
2023-03-27T05:10:45.066Z,0.67
2023-03-27T05:13:12.330Z,0.70
2023-03-27T05:15:39.350Z,0.40
2023-03-27T05:18:07.406Z,0.70
2023-03-27T05:20:34.767Z,0.87
2023-03-27T05:23:01.634Z,0.87
2023-03-27T05:25:28.854Z,0.80
2023-03-27T05:27:55.783Z,0.90
2023-03-27T05:30:23.712Z,1.20
2023-03-27T05:32:54.266Z,0.80
2023-03-27T05:35:22.574Z,0.90
2023-03-27T05:37:50.563Z,0.90
2023-03-27T05:40:20.859Z,0.83
2023-03-27T05:42:47.785Z,0.93
2023-03-27T05:45:14.740Z,1.27
2023-03-27T05:47:48.595Z,1.90
2023-03-27T05:50:15.979Z,1.90
2023-03-27T05:52:42.859Z,1.90
2023-03-27T05:55:10.425Z,1.27
2023-03-27T05:57:40.788Z,1.30
2023-03-27T06:00:13.978Z,0.80
2023-03-27T06:02:43.314Z,1.07
2023-03-27T06:05:13.386Z,0.73
2023-03-27T06:07:42.913Z,0.60
2023-03-27T06:10:13.257Z,1.00
2023-03-27T06:12:41.857Z,0.77
2023-03-27T06:15:09.658Z,0.63
2023-03-27T06:17:38.444Z,0.70
2023-03-27T06:20:12.842Z,0.60
2023-03-27T06:22:44.849Z,0.70
2023-03-27T06:25:11.604Z,0.80
2023-03-27T06:27:39.241Z,0.73
2023-03-27T06:30:06.746Z,0.77
2023-03-27T06:32:34.399Z,0.83
2023-03-27T06:35:02.774Z,0.70
2023-03-27T06:37:33.824Z,0.80
2023-03-27T06:40:00.795Z,0.80
2023-03-27T06:42:27.549Z,0.97
2023-03-27T06:44:54.375Z,0.97
2023-03-27T06:47:21.176Z,1.00
2023-03-27T06:49:48.771Z,1.37
2023-03-27T06:52:15.953Z,1.17
2023-03-27T06:54:42.738Z,1.07
2023-03-27T06:57:09.533Z,0.70
2023-03-27T06:59:36.802Z,1.00
2023-03-27T07:02:03.717Z,1.03
2023-03-27T07:04:30.562Z,1.30
2023-03-27T07:06:57.422Z,1.10
2023-03-27T07:09:24.216Z,1.47
2023-03-27T07:11:50.971Z,2.13
2023-03-27T07:14:17.740Z,2.00
2023-03-27T07:16:44.590Z,1.33
2023-03-27T07:19:11.309Z,1.60
2023-03-27T07:21:38.104Z,2.03
2023-03-27T07:24:05.579Z,2.20
2023-03-27T07:26:33.767Z,0.83
2023-03-27T07:29:00.986Z,1.07
2023-03-27T07:31:42.332Z,0.70
2023-03-27T07:34:16.037Z,0.50
2023-03-27T07:36:43.329Z,0.60
2023-03-27T07:39:12.522Z,0.60
2023-03-27T07:41:39.313Z,0.40
2023-03-27T07:44:06.222Z,0.40
2023-03-27T07:46:33.058Z,0.70
2023-03-27T07:48:59.863Z,0.70
2023-03-27T07:51:27.534Z,0.77
2023-03-27T07:53:56.534Z,0.60
2023-03-27T07:56:23.669Z,0.80
2023-03-27T07:58:51.718Z,0.70
2023-03-27T08:01:18.806Z,0.53
2023-03-27T08:03:48.564Z,0.80
2023-03-27T08:06:15.673Z,0.80
2023-03-27T08:08:43.001Z,0.93
2023-03-27T08:11:23.219Z,1.10
2023-03-27T08:13:56.798Z,0.50
2023-03-27T08:16:27.863Z,0.60
2023-03-27T08:18:54.838Z,0.77
2023-03-27T08:21:21.674Z,0.63
2023-03-27T08:23:48.802Z,0.60
2023-03-27T08:26:16.098Z,0.60
2023-03-27T08:28:43.046Z,0.60
2023-03-27T08:31:14.556Z,0.40
2023-03-27T08:33:44.536Z,0.43
2023-03-27T08:36:11.646Z,0.40
2023-03-27T08:38:39.566Z,0.60
2023-03-27T08:41:06.807Z,0.47
2023-03-27T08:43:41.652Z,0.60
2023-03-27T08:46:22.909Z,0.50
2023-03-27T08:48:57.188Z,0.43
2023-03-27T08:51:47.450Z,0.50
2023-03-27T08:54:16.753Z,0.60
2023-03-27T08:56:44.134Z,0.40
2023-03-27T08:59:17.309Z,0.50
2023-03-27T09:02:30.011Z,0.50
2023-03-27T09:05:07.462Z,0.50
2023-03-27T09:08:12.008Z,0.60
2023-03-27T09:10:41.064Z,0.60
2023-03-27T09:13:12.232Z,0.60
2023-03-27T09:15:47.729Z,0.60
2023-03-27T09:18:21.066Z,0.60
2023-03-27T09:20:56.341Z,0.60
2023-03-27T09:23:38.897Z,0.60
2023-03-27T09:26:09.736Z,0.60
2023-03-27T09:28:56.180Z,0.60
2023-03-27T09:31:29.758Z,1.00
2023-03-27T09:33:57.985Z,0.73
2023-03-27T09:36:24.790Z,0.80
2023-03-27T09:38:58.725Z,1.00
2023-03-27T09:41:47.736Z,0.70
2023-03-27T09:44:27.862Z,0.90
2023-03-27T09:47:40.991Z,0.87
2023-03-27T09:50:27.757Z,0.60
2023-03-27T09:53:07.268Z,0.63
2023-03-27T09:55:34.681Z,0.80
2023-03-27T09:58:15.302Z,0.60
2023-03-27T10:00:42.301Z,0.60
2023-03-27T10:03:17.978Z,0.50
2023-03-27T10:05:46.947Z,0.33
2023-03-27T10:08:45.540Z,0.60
2023-03-27T10:11:22.581Z,1.03
2023-03-27T10:13:50.118Z,0.60
2023-03-27T10:16:18.225Z,0.50
2023-03-27T10:18:47.394Z,0.60
2023-03-27T10:21:39.256Z,0.60
2023-03-27T10:24:27.220Z,0.57
2023-03-27T10:26:53.976Z,0.60
2023-03-27T10:29:21.040Z,0.43
2023-03-27T10:31:53.201Z,0.50
2023-03-27T10:34:41.193Z,0.43
2023-03-27T10:37:20.658Z,0.50
2023-03-27T10:39:47.714Z,0.87
2023-03-27T10:42:15.012Z,0.50
2023-03-27T10:44:42.790Z,0.43
2023-03-27T10:47:23.262Z,0.43
2023-03-27T10:49:56.297Z,0.50
2023-03-27T10:52:28.045Z,0.50
2023-03-27T10:55:32.296Z,0.47
2023-03-27T10:58:01.824Z,0.53
2023-03-27T11:00:39.112Z,0.50
2023-03-27T11:03:38.765Z,0.77
2023-03-27T11:06:08.160Z,0.50
2023-03-27T11:08:54.976Z,0.67
2023-03-27T11:11:28.500Z,0.50
2023-03-27T11:13:55.874Z,0.47
2023-03-27T11:16:37.728Z,0.50
2023-03-27T11:19:10.137Z,0.50
2023-03-27T11:21:39.484Z,0.40
2023-03-27T11:24:11.455Z,0.70
2023-03-27T11:26:50.901Z,0.70
2023-03-27T11:29:32.089Z,0.70
2023-03-27T11:32:11.444Z,0.60
2023-03-27T11:34:54.494Z,0.60
2023-03-27T11:37:47.077Z,0.70
2023-03-27T11:40:20.462Z,0.70
2023-03-27T11:42:47.309Z,0.80
2023-03-27T11:45:15.689Z,0.80
2023-03-27T11:47:57.552Z,0.70
2023-03-27T11:50:55.309Z,0.70
2023-03-27T11:53:26.030Z,0.70
2023-03-27T11:56:14.199Z,0.70
2023-03-27T11:58:48.705Z,1.20
2023-03-27T12:01:18.112Z,1.00
2023-03-27T12:03:53.914Z,0.87
2023-03-27T12:06:32.650Z,0.90
2023-03-27T12:09:14.521Z,0.73
2023-03-27T12:11:45.646Z,0.77
2023-03-27T12:14:40.170Z,0.73
2023-03-27T12:17:48.205Z,0.70
2023-03-27T12:20:32.964Z,0.80
2023-03-27T12:23:31.170Z,0.93
2023-03-27T12:26:01.363Z,0.93
2023-03-27T12:28:44.754Z,1.03
2023-03-27T12:31:52.779Z,1.70
2023-03-27T12:34:38.721Z,0.70
2023-03-27T12:37:05.951Z,0.67
2023-03-27T12:39:33.084Z,1.97
2023-03-27T12:42:15.636Z,0.80
2023-03-27T12:45:03.979Z,0.60
2023-03-27T12:47:31.147Z,0.70
2023-03-27T12:49:58.828Z,0.70
2023-03-27T12:52:26.713Z,0.63
2023-03-27T12:55:18.511Z,0.73
2023-03-27T12:57:46.164Z,0.80
2023-03-27T13:00:24.006Z,0.70
2023-03-27T13:02:56.615Z,0.90
2023-03-27T13:05:42.357Z,1.20
2023-03-27T13:08:39.879Z,0.97
2023-03-27T13:11:30.682Z,0.70
2023-03-27T13:14:32.292Z,0.80
2023-03-27T13:17:10.996Z,0.90
2023-03-27T13:19:54.840Z,0.93
2023-03-27T13:22:39.577Z,0.97
2023-03-27T13:25:12.558Z,0.80
2023-03-27T13:28:07.378Z,0.87
2023-03-27T13:30:49.948Z,0.80
2023-03-27T13:33:18.176Z,1.10
2023-03-27T13:35:57.076Z,0.60
2023-03-27T13:38:47.146Z,1.23
2023-03-27T13:41:41.909Z,0.90
2023-03-27T13:44:28.382Z,0.80
2023-03-27T13:47:28.342Z,0.80
2023-03-27T13:50:07.011Z,0.90
2023-03-27T13:53:08.456Z,0.77
2023-03-27T13:55:56.880Z,1.03
2023-03-27T13:59:01.007Z,0.83
2023-03-27T14:01:39.604Z,0.73
2023-03-27T14:04:24.692Z,0.80
2023-03-27T14:07:22.360Z,0.80
2023-03-27T14:10:03.959Z,1.00
2023-03-27T14:12:45.483Z,1.03
2023-03-27T14:15:23.794Z,1.03
2023-03-27T14:18:23.234Z,0.70
2023-03-27T14:20:53.367Z,0.97
2023-03-27T14:23:25.754Z,0.70
2023-03-27T14:26:03.802Z,0.90
2023-03-27T14:28:55.601Z,0.77
2023-03-27T14:31:23.181Z,0.70
2023-03-27T14:34:03.518Z,0.70
2023-03-27T14:36:33.832Z,0.80
2023-03-27T14:39:22.198Z,0.90
2023-03-27T14:41:52.994Z,0.80
2023-03-27T14:44:20.297Z,0.90
2023-03-27T14:46:48.369Z,0.80
2023-03-27T14:49:19.456Z,0.90
2023-03-27T14:51:48.066Z,0.87
2023-03-27T14:54:19.455Z,1.00
2023-03-27T14:56:47.718Z,1.60
2023-03-27T14:59:22.692Z,1.50
2023-03-27T15:01:49.991Z,1.43
2023-03-27T15:04:16.886Z,1.00
2023-03-27T15:06:43.735Z,1.23
2023-03-27T15:09:15.614Z,0.90
2023-03-27T15:11:53.834Z,1.10
2023-03-27T15:14:28.386Z,0.97
2023-03-27T15:17:11.267Z,1.10
2023-03-27T15:19:48.521Z,0.83
2023-03-27T15:22:32.101Z,1.20
2023-03-27T15:25:09.084Z,1.00
2023-03-27T15:27:40.843Z,0.90
2023-03-27T15:30:18.010Z,1.00
2023-03-27T15:32:50.942Z,1.20
2023-03-27T15:35:25.341Z,0.80
2023-03-27T15:37:52.104Z,0.73
2023-03-27T15:40:42.510Z,0.80
2023-03-27T15:43:18.028Z,2.00
2023-03-27T15:45:53.114Z,0.70
2023-03-27T15:48:45.592Z,0.77
2023-03-27T15:51:26.848Z,0.90
2023-03-27T15:53:55.822Z,1.20
2023-03-27T15:56:29.649Z,1.43
2023-03-27T15:59:04.357Z,1.33
2023-03-27T16:01:36.377Z,1.23
2023-03-27T16:04:17.401Z,0.90
2023-03-27T16:06:48.576Z,0.90
2023-03-27T16:09:22.674Z,1.20
2023-03-27T16:11:49.555Z,1.17
2023-03-27T16:14:26.219Z,1.13
2023-03-27T16:17:20.843Z,1.03
2023-03-27T16:19:54.920Z,0.83
2023-03-27T16:22:27.265Z,1.27
2023-03-27T16:24:54.137Z,0.97
2023-03-27T16:27:25.100Z,1.57
2023-03-27T16:29:52.265Z,1.17
2023-03-27T16:32:19.828Z,1.20
2023-03-27T16:34:47.821Z,1.10
2023-03-27T16:37:15.738Z,1.47
2023-03-27T16:39:42.947Z,1.00
2023-03-27T16:42:16.022Z,1.47
2023-03-27T16:44:43.601Z,1.63
2023-03-27T16:47:10.859Z,1.93
2023-03-27T16:49:37.965Z,1.13
2023-03-27T16:52:04.872Z,1.00
2023-03-27T16:54:31.813Z,1.23
2023-03-27T16:56:58.654Z,1.43
2023-03-27T16:59:25.693Z,0.83
2023-03-27T17:01:52.433Z,1.93
2023-03-27T17:04:19.222Z,1.20
2023-03-27T17:06:46.830Z,1.40
2023-03-27T17:09:13.730Z,1.03
2023-03-27T17:11:40.841Z,1.60
2023-03-27T17:14:08.268Z,0.83
2023-03-27T17:16:35.278Z,0.90
2023-03-27T17:19:02.125Z,0.80
2023-03-27T17:21:28.849Z,0.80
2023-03-27T17:23:55.732Z,0.93
2023-03-27T17:26:27.193Z,1.00
2023-03-27T17:28:54.035Z,0.95
2023-03-27T17:31:20.983Z,1.50
2023-03-27T17:33:47.937Z,1.17
2023-03-27T17:36:15.808Z,1.10
2023-03-27T17:38:43.198Z,1.40
2023-03-27T17:41:12.133Z,1.27
2023-03-27T17:43:39.510Z,1.10
2023-03-27T17:46:07.588Z,1.00
2023-03-27T17:48:35.536Z,0.98
2023-03-27T17:51:08.751Z,1.00
2023-03-27T17:53:37.800Z,1.30
2023-03-27T17:56:04.833Z,0.85
2023-03-27T17:58:34.039Z,1.27
2023-03-27T18:01:07.567Z,0.90
2023-03-27T18:03:34.410Z,1.10
2023-03-27T18:06:03.479Z,0.85
2023-03-27T18:08:30.708Z,0.77
2023-03-27T18:10:57.530Z,0.90
2023-03-27T18:13:24.455Z,0.82
2023-03-27T18:15:56.505Z,0.82
2023-03-27T18:18:24.034Z,1.25
2023-03-27T18:20:52.118Z,0.80
2023-03-27T18:23:18.981Z,1.00
2023-03-27T18:25:45.820Z,2.35
2023-03-27T18:28:12.754Z,2.00
2023-03-27T18:30:40.152Z,1.42
2023-03-27T18:33:07.026Z,1.70
2023-03-27T18:35:36.397Z,1.10
2023-03-27T18:38:04.009Z,1.77
2023-03-27T18:40:32.839Z,1.10
2023-03-27T18:42:59.683Z,1.17
2023-03-27T18:45:26.662Z,0.95
2023-03-27T18:47:53.466Z,1.35
2023-03-27T18:50:20.418Z,0.90
2023-03-27T18:52:47.216Z,1.00
2023-03-27T18:55:15.003Z,0.80
2023-03-27T18:57:41.699Z,2.90
2023-03-27T19:00:09.069Z,4.35
2023-03-27T19:02:36.695Z,1.67
2023-03-27T19:05:04.460Z,1.67
2023-03-27T19:07:31.327Z,1.20
2023-03-27T19:09:58.818Z,1.55
2023-03-27T19:12:25.773Z,1.35
2023-03-27T19:14:52.589Z,1.80
2023-03-27T19:17:20.684Z,1.35
2023-03-27T19:19:47.476Z,1.85
2023-03-27T19:22:14.357Z,1.58
2023-03-27T19:24:41.406Z,1.65
2023-03-27T19:27:08.201Z,1.77
2023-03-27T19:29:51.236Z,1.23
2023-03-27T19:32:17.970Z,1.30
2023-03-27T19:34:44.774Z,1.10
2023-03-27T19:37:11.568Z,0.93
2023-03-27T19:39:38.431Z,1.20
2023-03-27T19:42:05.667Z,0.90
2023-03-27T19:44:32.444Z,1.58
2023-03-27T19:46:59.612Z,0.88
2023-03-27T19:49:26.522Z,1.20
2023-03-27T19:51:53.271Z,1.33
2023-03-27T19:54:20.060Z,1.27
2023-03-27T19:56:46.954Z,1.50
2023-03-27T19:59:20.859Z,1.40
2023-03-27T20:01:57.041Z,1.05
2023-03-27T20:04:23.893Z,1.02
2023-03-27T20:06:50.939Z,1.02
2023-03-27T20:09:19.008Z,0.90
2023-03-27T20:11:46.709Z,1.10
2023-03-27T20:14:13.558Z,1.20
2023-03-27T20:16:40.571Z,1.25
2023-03-27T20:19:07.778Z,0.90
2023-03-27T20:21:39.454Z,1.20
2023-03-27T20:24:09.935Z,1.10
2023-03-27T20:26:41.369Z,1.20
2023-03-27T20:29:09.583Z,1.00
2023-03-27T20:31:36.408Z,1.10
2023-03-27T20:34:04.118Z,1.15
2023-03-27T20:36:33.356Z,1.20
2023-03-27T20:39:00.478Z,0.80
2023-03-27T20:41:27.380Z,0.95
2023-03-27T20:43:54.351Z,1.00
2023-03-27T20:46:21.132Z,1.08
2023-03-27T20:48:53.930Z,1.00
2023-03-27T20:51:24.370Z,1.20
2023-03-27T20:53:55.854Z,1.25
2023-03-27T20:56:23.195Z,1.05
2023-03-27T20:58:51.502Z,1.10
2023-03-27T21:01:27.632Z,1.00
2023-03-27T21:03:58.431Z,1.10
2023-03-27T21:06:25.813Z,1.50
2023-03-27T21:08:52.592Z,1.30
2023-03-27T21:11:19.364Z,0.80
2023-03-27T21:13:46.155Z,1.00
2023-03-27T21:16:12.991Z,1.10
2023-03-27T21:24:32.231Z,1.30
2023-03-27T21:27:02.149Z,1.10
2023-03-27T21:29:28.920Z,1.30
2023-03-27T21:32:04.014Z,0.95
2023-03-27T21:34:31.101Z,1.10
2023-03-27T21:36:58.366Z,1.20
2023-03-27T21:39:25.238Z,1.17
2023-03-27T21:41:53.415Z,1.25
2023-03-27T21:44:20.356Z,1.30
2023-03-27T21:46:47.115Z,0.98
2023-03-27T21:49:13.921Z,1.50
2023-03-27T21:51:40.672Z,1.20
2023-03-27T21:54:07.494Z,1.40
2023-03-27T21:56:34.367Z,1.23
2023-03-27T21:59:01.301Z,2.13
2023-03-27T22:01:28.128Z,1.45
2023-03-27T22:03:59.484Z,1.60
2023-03-27T22:06:28.842Z,1.60
2023-03-27T22:08:56.149Z,1.25
2023-03-27T22:11:22.993Z,1.90
2023-03-27T22:13:49.745Z,1.30
2023-03-27T22:16:17.304Z,1.20
2023-03-27T22:18:44.206Z,1.20
2023-03-27T22:21:24.766Z,1.33
2023-03-27T22:23:52.269Z,4.13
2023-03-27T22:26:20.046Z,2.28
2023-03-27T22:28:47.097Z,2.20
2023-03-27T22:31:13.834Z,1.45
2023-03-27T22:33:40.807Z,2.60
2023-03-27T22:36:10.498Z,1.20
2023-03-27T22:38:37.456Z,1.50
2023-03-27T22:41:05.418Z,2.15
2023-03-27T22:43:32.243Z,1.80
2023-03-27T22:46:11.057Z,1.63
2023-03-27T22:48:37.813Z,2.08
2023-03-27T22:51:04.903Z,1.55
2023-03-27T22:53:32.012Z,1.92
2023-03-27T22:55:59.112Z,1.65
2023-03-27T22:58:26.067Z,1.55
2023-03-27T23:00:53.788Z,1.20
2023-03-27T23:03:21.027Z,1.60
2023-03-27T23:05:49.128Z,1.67
2023-03-27T23:08:16.742Z,1.60
2023-03-27T23:10:43.730Z,1.30
2023-03-27T23:13:10.495Z,1.42
2023-03-27T23:15:37.259Z,1.30
2023-03-27T23:18:04.536Z,1.50
2023-03-27T23:20:31.406Z,1.50
2023-03-27T23:22:58.205Z,1.10
2023-03-27T23:25:25.059Z,1.10
2023-03-27T23:27:51.809Z,2.58
2023-03-27T23:30:18.615Z,1.67
2023-03-27T23:32:45.446Z,1.05
2023-03-27T23:35:12.287Z,1.38
2023-03-27T23:37:39.058Z,1.25
2023-03-27T23:40:06.820Z,1.20
2023-03-27T23:42:33.694Z,1.52
2023-03-27T23:45:00.960Z,1.42
2023-03-27T23:47:27.763Z,1.35
2023-03-27T23:49:54.493Z,1.00
2023-03-27T23:52:21.312Z,1.30
2023-03-27T23:54:48.036Z,1.38
2023-03-27T23:57:14.762Z,0.90
2023-03-27T23:59:41.534Z,1.10
